Main page
METAR-TAF:

METAR-TAF

Airports :

Malabo International Airport

Malabo, Equatorial Guinea

latitude: 03-45-18N, longitude: 08-42-31E, elevation: 23 m

Current weather observation

The report was made 6 hours and 30 minutes ago, at 09:00 UTC
Wind 4 kt from the East, varying between Northeast and Southeast
Temperature 31°C
Humidity 71%
Pressure 1012 hPa
Visibility 10 km or more
Scattered clouds at a height of 1200 ft
Few clouds at a height of 2000 ft, Cumulonimbus.

METAR: FGSL 280900Z 09004KT 050V130 9999 SCT012 FEW020CB 31/25 Q1012 NOSIG

Time: 16:30 (15:30 UTC)


TAF: missing

Weather observations and forecasts of more than 4000 airports (METAR and TAF reports).

The available stations are represented by yellow and red dots on the map.

Hover mouse over dot to see the name of the station.

Then click to see weather observations and forecasts.

To change the map : click on the green buttons with a black cross to zoom in, on the green button with a dash to zoom out, or on the green arrows for adjacent maps.


METAR-TAF: